LGKR/CFU METAR and TAF weather

Enter ICAO airport designator
Station Type Date Time Source
LGKR METAR 2020/08/07 12:20 UTC NOAA

LGKR 071220Z /////KT 9999 VCTS SCT025TCU FEW030CB 29/20 Q1011 BECMG 5000 TSRA


Station Type Date Time Source
LGKR Decoded METAR 2020/08/07 12:20 UTC NOAA

Kerkyra Airport , Greece (LGKR) 39-37N 019-55E 4M
Aug 07, 2020 - 08:20 AM EDT / 2020.08.07 1220 UTC
Visibility: greater than 7 mile(s):0
Sky conditions: partly cloudy
Weather: thunder in the vicinity; Cumulonimbus clouds, towering cumulus clouds observed
Temperature: 84 F (29 C)
Dew Point: 68 F (20 C)
Relative Humidity: 58%
Pressure (altimeter): 29.85 in. Hg (1011 hPa)
ob: LGKR 071220Z /////KT 9999 VCTS SCT025TCU FEW030CB 29/20 Q1011 BECMG 5000 TSRA
cycle: 12

Station Type Date Time Source
LGKR TAF 2020/08/07 12:12 UTC NOAA

TAF LGKR 071100Z 0712/0812 33010KT 9999 FEW015 FEW018TCU SCT080 PROB40
TEMPO 0712/0718 5000 RA SCT015 FEW018TCU BKN070 PROB40
TEMPO 0712/0716 3000 TSRA SCT012 FEW018CB BKN020
BECMG 0718/0720 VRB03KT PROB40
TEMPO 0806/0812 5000 SHRA SCT015 FEW018TCU BKN070

Example: see airport list